Time;durP1;ratioP1;P1;durP2;ratioP2;P2;SDS_P1;SDS_P2;PMS_P1;PMS_P2;Temp;Humidity;BMP_temperature;BMP_pressure;BME280_temperature;BME280_humidity;BME280_pressure;Samples;Min_cycle;Max_cycle;Signal;HPM_P1;HPM_P2
2023/09/14 00:01:15;;;;;;;0.50;0.50;;;18.50;99.90;;;;;;5016683;28;20439;-83
2023/09/14 00:03:43;;;;;;;3.90;2.27;;;18.40;99.90;;;;;;5030350;28;20438;-84
2023/09/14 00:06:11;;;;;;;0.70;0.70;;;18.40;99.90;;;;;;5030661;28;20515;-88
2023/09/14 00:08:40;;;;;;;0.50;0.50;;;18.30;99.90;;;;;;5020453;28;20447;-87
2023/09/14 00:11:11;;;;;;;0.60;0.60;;;18.40;99.90;;;;;;5032880;28;20484;-82
2023/09/14 00:13:38;;;;;;;0.73;0.73;;;18.50;99.90;;;;;;5026047;28;20478;-85
2023/09/14 00:16:05;;;;;;;0.67;0.67;;;18.50;99.90;;;;;;5034421;28;20542;-86
2023/09/14 00:18:34;;;;;;;0.70;0.70;;;18.40;99.90;;;;;;5031544;28;20485;-87
2023/09/14 00:21:00;;;;;;;0.50;0.50;;;18.40;99.90;;;;;;5039271;28;20435;-88
2023/09/14 00:23:28;;;;;;;1.67;0.93;;;18.40;99.90;;;;;;5033551;28;20438;-85
2023/09/14 00:25:55;;;;;;;0.60;0.60;;;18.30;99.90;;;;;;5021738;28;20522;-86
2023/09/14 00:28:26;;;;;;;0.50;0.50;;;18.30;99.90;;;;;;5022422;28;20455;-88
2023/09/14 00:30:53;;;;;;;1.03;1.03;;;18.20;99.90;;;;;;5022831;28;20438;-81
2023/09/14 00:33:22;;;;;;;0.70;0.70;;;18.20;99.90;;;;;;5017893;28;20870;-86
2023/09/14 00:35:51;;;;;;;0.93;0.93;;;18.20;99.90;;;;;;5016666;28;20835;-84
2023/09/14 00:38:22;;;;;;;1.13;1.13;;;18.10;99.90;;;;;;5023325;28;20489;-82
2023/09/14 00:40:50;;;;;;;0.87;0.87;;;18.10;99.90;;;;;;5025675;28;20565;-81
2023/09/14 00:43:17;;;;;;;0.97;0.97;;;18.00;99.90;;;;;;5021334;28;20410;-79
2023/09/14 00:45:45;;;;;;;0.80;0.80;;;18.00;99.90;;;;;;5030782;28;20435;-79
2023/09/14 00:48:12;;;;;;;1.20;1.20;;;17.90;99.90;;;;;;5020581;28;20443;-85
2023/09/14 00:50:40;;;;;;;0.50;0.50;;;17.90;99.90;;;;;;5026842;28;20853;-85
2023/09/14 00:53:11;;;;;;;0.50;0.50;;;17.90;99.90;;;;;;5037015;28;20545;-84
2023/09/14 00:55:40;;;;;;;0.50;0.50;;;17.80;99.90;;;;;;5033152;28;20542;-83
2023/09/14 00:58:07;;;;;;;0.60;0.60;;;17.70;99.90;;;;;;5037990;28;20441;-87
2023/09/14 01:00:34;;;;;;;0.70;0.70;;;17.70;99.90;;;;;;5028694;28;20498;-87
2023/09/14 01:03:03;;;;;;;1.07;1.00;;;17.70;99.90;;;;;;5027276;28;20454;-88
2023/09/14 01:05:34;;;;;;;0.50;0.50;;;17.60;99.90;;;;;;5016195;28;20518;-87
2023/09/14 01:08:01;;;;;;;0.70;0.70;;;17.50;99.90;;;;;;5031594;28;20473;-80
2023/09/14 01:10:33;;;;;;;1.23;1.13;;;17.40;99.90;;;;;;5024404;28;20561;-80
2023/09/14 01:13:00;;;;;;;0.70;0.70;;;17.50;99.90;;;;;;5014422;28;20446;-83
2023/09/14 01:15:54;;;;;;;0.50;0.50;;;17.50;99.90;;;;;;5011782;28;20573;-84
2023/09/14 01:18:55;;;;;;;0.77;0.77;;;17.60;99.90;;;;;;5026743;28;20451;-82
2023/09/14 01:21:52;;;;;;;0.87;0.87;;;17.50;99.90;;;;;;5012669;28;20774;-80
2023/09/14 01:24:38;;;;;;;0.67;0.67;;;17.50;99.90;;;;;;5013709;28;20516;-87
2023/09/14 01:27:05;;;;;;;1.27;1.17;;;17.30;99.90;;;;;;5020070;28;20419;-86
2023/09/14 01:29:33;;;;;;;0.73;0.73;;;17.30;99.90;;;;;;5030321;28;20446;-84
2023/09/14 01:32:00;;;;;;;0.77;0.77;;;17.30;99.90;;;;;;5030035;28;20510;-86
2023/09/14 01:34:27;;;;;;;1.50;1.40;;;17.30;99.90;;;;;;5028194;28;20534;-85
2023/09/14 01:36:58;;;;;;;0.50;0.50;;;17.30;99.90;;;;;;5022257;28;20477;-85
2023/09/14 01:39:27;;;;;;;0.60;0.60;;;17.30;99.90;;;;;;5019761;28;20448;-89
2023/09/14 01:41:55;;;;;;;0.53;0.53;;;17.20;99.90;;;;;;5030654;28;20529;-88
2023/09/14 01:44:27;;;;;;;0.63;0.63;;;17.20;99.90;;;;;;5018402;28;20447;-83
2023/09/14 01:46:56;;;;;;;0.57;0.57;;;17.20;99.90;;;;;;5026051;28;20458;-85
2023/09/14 01:49:25;;;;;;;0.73;0.73;;;17.20;99.90;;;;;;5015531;28;20443;-89
2023/09/14 01:51:53;;;;;;;0.90;0.90;;;17.20;99.90;;;;;;5019680;28;20450;-82
2023/09/14 01:54:20;;;;;;;0.93;0.93;;;17.20;99.90;;;;;;5022481;28;20455;-81
2023/09/14 01:56:48;;;;;;;1.00;1.00;;;17.10;99.90;;;;;;5028183;28;20619;-85
2023/09/14 01:59:16;;;;;;;0.70;0.70;;;17.20;99.90;;;;;;5018816;28;20528;-87
2023/09/14 02:01:46;;;;;;;1.13;1.13;;;17.10;99.90;;;;;;5028648;28;20474;-87
2023/09/14 02:04:13;;;;;;;0.50;0.50;;;17.20;99.90;;;;;;5036180;28;20480;-86
2023/09/14 02:06:42;;;;;;;0.67;0.67;;;17.10;99.90;;;;;;5027413;28;20451;-83
2023/09/14 02:09:09;;;;;;;1.90;1.80;;;17.20;99.90;;;;;;5035566;28;20811;-83
2023/09/14 02:11:36;;;;;;;0.50;0.50;;;17.10;99.90;;;;;;5028069;28;20493;-88
2023/09/14 02:14:03;;;;;;;0.73;0.73;;;17.20;99.90;;;;;;5027407;28;20476;-85
2023/09/14 02:16:37;;;;;;;0.77;0.77;;;17.10;99.90;;;;;;5018649;28;20547;-84
2023/09/14 02:19:06;;;;;;;0.80;0.80;;;17.20;99.90;;;;;;5029750;28;20711;-86
2023/09/14 02:21:34;;;;;;;3.57;2.07;;;17.20;99.90;;;;;;5013828;28;20478;-80
2023/09/14 02:24:01;;;;;;;0.60;0.60;;;17.20;99.90;;;;;;5030048;28;20470;-84
2023/09/14 02:26:30;;;;;;;1.13;1.03;;;17.20;99.90;;;;;;5023110;28;20518;-86
2023/09/14 02:28:57;;;;;;;0.50;0.50;;;17.20;99.90;;;;;;5024850;28;20482;-84
2023/09/14 02:31:25;;;;;;;0.77;0.77;;;17.20;99.90;;;;;;5033634;28;20780;-83
2023/09/14 02:33:52;;;;;;;0.90;0.90;;;17.20;99.90;;;;;;5012062;28;20494;-80
2023/09/14 02:36:25;;;;;;;4.30;1.33;;;17.20;99.90;;;;;;5027792;28;20493;-82
2023/09/14 02:38:52;;;;;;;2.00;1.30;;;17.40;99.90;;;;;;5015021;28;20500;-85
2023/09/14 02:41:20;;;;;;;1.33;1.23;;;17.30;99.90;;;;;;5035048;28;20513;-89
2023/09/14 02:43:47;;;;;;;0.57;0.57;;;17.40;99.90;;;;;;5022631;28;20470;-85
2023/09/14 02:46:14;;;;;;;1.33;1.33;;;17.40;99.90;;;;;;5032639;28;20454;-85
2023/09/14 02:48:42;;;;;;;2.03;1.93;;;17.40;99.90;;;;;;5020191;28;20484;-85
2023/09/14 02:51:09;;;;;;;0.90;0.90;;;17.40;99.90;;;;;;5030205;28;20449;-87
2023/09/14 02:53:37;;;;;;;0.60;0.60;;;17.50;99.90;;;;;;5017913;28;20452;-86
2023/09/14 02:56:11;;;;;;;0.40;0.40;;;17.30;99.90;;;;;;5030301;28;20473;-83
2023/09/14 02:58:39;;;;;;;0.70;0.70;;;17.30;99.90;;;;;;5020318;28;20543;-83
2023/09/14 03:01:10;;;;;;;0.50;0.50;;;17.40;99.90;;;;;;5023776;28;20439;-79
2023/09/14 03:03:38;;;;;;;0.83;0.83;;;17.40;99.90;;;;;;5019233;28;20776;-81
2023/09/14 03:06:08;;;;;;;0.90;0.90;;;17.40;99.90;;;;;;5020568;28;20454;-81
2023/09/14 03:08:35;;;;;;;0.80;0.73;;;17.40;99.90;;;;;;5020026;28;20725;-82
2023/09/14 03:11:03;;;;;;;1.03;1.03;;;17.40;99.90;;;;;;5035547;28;20503;-85
2023/09/14 03:13:32;;;;;;;1.97;1.50;;;17.50;99.90;;;;;;5025331;28;20530;-80
2023/09/14 03:16:00;;;;;;;4.63;2.43;;;17.50;99.90;;;;;;5012080;28;21066;-86
2023/09/14 03:18:27;;;;;;;1.73;1.63;;;17.50;99.90;;;;;;5018561;28;20451;-82
2023/09/14 03:20:55;;;;;;;0.50;0.50;;;17.50;99.90;;;;;;5028069;28;20447;-90
2023/09/14 03:23:23;;;;;;;0.60;0.60;;;17.40;99.90;;;;;;5032123;28;20454;-90
2023/09/14 03:25:50;;;;;;;0.60;0.60;;;17.40;99.90;;;;;;5020272;28;20483;-85
2023/09/14 03:28:18;;;;;;;0.77;0.77;;;17.50;99.90;;;;;;5010412;28;20454;-87
2023/09/14 03:30:47;;;;;;;1.37;1.27;;;17.60;99.90;;;;;;5019055;28;20463;-87
2023/09/14 03:33:15;;;;;;;1.23;1.23;;;17.50;99.90;;;;;;5025274;28;20449;-81
2023/09/14 03:35:42;;;;;;;0.77;0.77;;;17.50;99.90;;;;;;5027001;28;20482;-83
2023/09/14 03:38:15;;;;;;;0.77;0.77;;;17.50;99.90;;;;;;5019230;28;20469;-89
2023/09/14 03:40:42;;;;;;;1.27;1.20;;;17.50;99.90;;;;;;5030628;28;20506;-80
2023/09/14 03:43:09;;;;;;;0.77;0.77;;;17.50;99.90;;;;;;5019280;28;20463;-79
2023/09/14 03:45:37;;;;;;;0.73;0.73;;;17.50;99.90;;;;;;5026447;28;20450;-85
2023/09/14 03:48:05;;;;;;;2.10;2.00;;;17.60;99.90;;;;;;5026388;28;20458;-79
2023/09/14 03:50:33;;;;;;;0.60;0.60;;;17.60;99.90;;;;;;5021879;28;20788;-84
2023/09/14 03:53:02;;;;;;;1.20;1.20;;;17.60;99.90;;;;;;5022369;28;20531;-84
2023/09/14 03:55:30;;;;;;;0.97;0.97;;;17.50;99.90;;;;;;5025665;28;20546;-86
2023/09/14 03:57:57;;;;;;;1.50;1.50;;;17.60;99.90;;;;;;5021447;28;20497;-84
2023/09/14 04:00:26;;;;;;;1.60;1.50;;;17.60;99.90;;;;;;5029643;28;20442;-87
2023/09/14 04:02:53;;;;;;;0.80;0.80;;;17.60;99.90;;;;;;5028325;28;20762;-82
2023/09/14 04:05:21;;;;;;;1.40;1.33;;;17.60;99.90;;;;;;5019536;28;20456;-81
2023/09/14 04:07:48;;;;;;;0.73;0.73;;;17.60;99.90;;;;;;5017749;28;20463;-81
2023/09/14 04:10:17;;;;;;;0.60;0.60;;;17.60;99.90;;;;;;5027207;28;20530;-89
2023/09/14 04:12:51;;;;;;;0.50;0.50;;;17.70;99.90;;;;;;5132018;22;20529;-87
2023/09/14 04:15:32;;;;;;;1.80;1.63;;;17.50;99.90;;;;;;5030337;28;20790;-85
2023/09/14 04:17:59;;;;;;;0.83;0.83;;;17.50;99.90;;;;;;5028912;28;20526;-86
2023/09/14 04:20:28;;;;;;;1.33;1.33;;;17.60;99.90;;;;;;5028322;28;20451;-79
2023/09/14 04:22:55;;;;;;;0.83;0.83;;;17.60;99.90;;;;;;5030593;28;20470;-81
2023/09/14 04:25:23;;;;;;;1.93;1.83;;;17.50;99.90;;;;;;5032650;28;20511;-84
2023/09/14 04:27:52;;;;;;;1.77;1.53;;;17.60;99.90;;;;;;5026997;28;20518;-82
2023/09/14 04:30:19;;;;;;;1.90;1.80;;;17.70;99.90;;;;;;5028974;28;20453;-79
2023/09/14 04:32:47;;;;;;;0.60;0.60;;;17.50;99.90;;;;;;5017728;28;20526;-87
2023/09/14 04:35:17;;;;;;;1.87;1.77;;;17.40;99.90;;;;;;5021256;28;20458;-86
2023/09/14 04:37:44;;;;;;;1.67;1.57;;;17.40;99.90;;;;;;5018874;28;20447;-82
2023/09/14 04:40:11;;;;;;;1.40;1.30;;;17.30;99.90;;;;;;5021786;28;20451;-82
2023/09/14 04:42:42;;;;;;;1.43;1.33;;;17.20;99.90;;;;;;5026246;28;20467;-88
2023/09/14 04:45:09;;;;;;;1.40;1.40;;;17.10;99.90;;;;;;5020675;28;20439;-84
2023/09/14 04:47:36;;;;;;;2.33;2.20;;;16.80;99.90;;;;;;5018460;28;20456;-87
2023/09/14 04:50:06;;;;;;;0.70;0.70;;;16.80;99.90;;;;;;5028229;28;20993;-83
2023/09/14 04:52:33;;;;;;;0.67;0.67;;;16.70;99.90;;;;;;5028227;28;20448;-84
2023/09/14 04:55:01;;;;;;;1.97;1.87;;;16.60;99.90;;;;;;5030058;28;20443;-82
2023/09/14 04:57:28;;;;;;;0.80;0.80;;;16.50;99.90;;;;;;5030588;28;20478;-85
2023/09/14 04:59:55;;;;;;;0.73;0.73;;;16.60;99.90;;;;;;5021056;28;20430;-87
2023/09/14 05:02:22;;;;;;;1.80;1.70;;;16.50;99.90;;;;;;5029523;28;20510;-82
2023/09/14 05:04:52;;;;;;;0.97;0.90;;;16.50;99.90;;;;;;5026425;28;20443;-81
2023/09/14 05:07:22;;;;;;;0.97;0.97;;;16.50;99.90;;;;;;5015883;28;20453;-82
2023/09/14 05:09:52;;;;;;;1.23;1.17;;;16.40;99.90;;;;;;5013129;28;20499;-80
2023/09/14 05:12:21;;;;;;;0.97;0.97;;;16.40;99.90;;;;;;5013574;28;20514;-82
2023/09/14 05:14:54;;;;;;;0.90;0.90;;;16.20;99.90;;;;;;5022257;28;20454;-83
2023/09/14 05:17:21;;;;;;;0.97;0.93;;;16.30;99.90;;;;;;5011812;28;20486;-79
2023/09/14 05:19:48;;;;;;;0.50;0.50;;;16.20;99.90;;;;;;5009180;28;20528;-84
2023/09/14 05:22:15;;;;;;;0.93;0.90;;;16.30;99.90;;;;;;5022017;28;20498;-82
2023/09/14 05:24:46;;;;;;;2.33;2.13;;;16.30;99.90;;;;;;5004051;28;20761;-86
2023/09/14 05:27:13;;;;;;;0.73;0.73;;;16.30;99.90;;;;;;5018887;28;20462;-86
2023/09/14 05:29:43;;;;;;;0.50;0.50;;;16.30;99.90;;;;;;5018549;28;21004;-80
2023/09/14 05:32:12;;;;;;;0.50;0.50;;;16.30;99.90;;;;;;5019604;28;20509;-87
2023/09/14 05:34:42;;;;;;;2.03;1.93;;;16.30;99.90;;;;;;5018171;28;20947;-90
2023/09/14 05:37:10;;;;;;;0.47;0.47;;;16.30;99.90;;;;;;5021013;28;20480;-80
2023/09/14 05:39:38;;;;;;;0.60;0.60;;;16.40;99.90;;;;;;5026038;28;20474;-80
2023/09/14 05:42:11;;;;;;;0.53;0.53;;;16.30;99.90;;;;;;5004492;28;20475;-82
2023/09/14 05:44:41;;;;;;;0.40;0.40;;;16.20;99.90;;;;;;5014189;28;20438;-85
2023/09/14 05:47:07;;;;;;;0.60;0.60;;;16.20;99.90;;;;;;5018767;28;20508;-81
2023/09/14 05:49:35;;;;;;;0.50;0.50;;;16.10;99.90;;;;;;5016197;28;20451;-81
2023/09/14 05:52:05;;;;;;;0.90;0.90;;;16.00;99.90;;;;;;5038721;28;20442;-84
2023/09/14 05:54:33;;;;;;;0.40;0.40;;;16.00;99.90;;;;;;5018912;28;20455;-80
2023/09/14 05:57:06;;;;;;;0.57;0.57;;;16.00;99.90;;;;;;5024850;28;20529;-84
2023/09/14 05:59:33;;;;;;;0.80;0.80;;;16.00;99.90;;;;;;5025947;28;20523;-79
2023/09/14 06:02:00;;;;;;;0.73;0.73;;;15.90;99.90;;;;;;5027727;28;20486;-84
2023/09/14 06:04:33;;;;;;;1.57;0.93;;;16.00;99.90;;;;;;5050419;28;20458;-79
2023/09/14 06:07:05;;;;;;;0.50;0.50;;;15.80;99.90;;;;;;5042030;28;20432;-80
2023/09/14 06:09:34;;;;;;;0.67;0.67;;;15.80;99.90;;;;;;5037748;28;20450;-82
2023/09/14 06:12:01;;;;;;;0.40;0.40;;;15.70;99.90;;;;;;5026445;28;20490;-80
2023/09/14 06:14:33;;;;;;;0.40;0.40;;;15.70;99.90;;;;;;5027033;28;20445;-81
2023/09/14 06:17:03;;;;;;;0.40;0.40;;;15.60;99.90;;;;;;5026831;28;20486;-83
2023/09/14 06:19:30;;;;;;;0.90;0.90;;;15.60;99.90;;;;;;5019463;28;20450;-82
2023/09/14 06:21:58;;;;;;;1.53;1.43;;;15.60;99.90;;;;;;5014651;28;20621;-79
2023/09/14 06:24:27;;;;;;;1.10;1.10;;;15.60;99.90;;;;;;5021506;28;20458;-81
2023/09/14 06:26:55;;;;;;;2.40;2.30;;;15.60;99.90;;;;;;5024326;28;20528;-78
2023/09/14 06:29:29;;;;;;;0.70;0.70;;;15.70;99.90;;;;;;5026453;28;20455;-82
2023/09/14 06:31:56;;;;;;;0.70;0.70;;;15.60;99.90;;;;;;5017813;28;20518;-81
2023/09/14 06:34:24;;;;;;;0.73;0.73;;;15.70;99.90;;;;;;5019831;28;21042;-81
2023/09/14 06:36:53;;;;;;;0.47;0.47;;;15.60;99.90;;;;;;5029937;28;20540;-82
2023/09/14 06:39:21;;;;;;;1.27;1.17;;;15.60;99.90;;;;;;5023524;28;20739;-81
2023/09/14 06:41:48;;;;;;;0.80;0.80;;;15.70;99.90;;;;;;5034816;28;20430;-83
2023/09/14 06:44:19;;;;;;;0.50;0.50;;;15.70;99.90;;;;;;5020877;28;20477;-84
2023/09/14 06:46:46;;;;;;;1.03;1.03;;;15.70;99.90;;;;;;5010031;28;20541;-85
2023/09/14 06:49:19;;;;;;;0.90;0.90;;;15.80;99.90;;;;;;5033032;28;20465;-84
2023/09/14 06:51:49;;;;;;;0.40;0.40;;;15.80;99.90;;;;;;5024659;28;20423;-83
2023/09/14 06:54:16;;;;;;;1.13;1.00;;;15.80;99.90;;;;;;5026449;28;20443;-78
2023/09/14 06:56:44;;;;;;;1.37;1.10;;;15.90;99.90;;;;;;5024388;28;20483;-84
2023/09/14 06:59:11;;;;;;;0.60;0.60;;;15.90;99.90;;;;;;5001862;28;20474;-86
2023/09/14 07:01:41;;;;;;;0.50;0.50;;;15.80;99.90;;;;;;5021428;28;20443;-80
2023/09/14 07:04:11;;;;;;;0.77;0.77;;;15.90;99.90;;;;;;5023428;28;20591;-89
2023/09/14 07:06:39;;;;;;;1.03;1.03;;;15.90;99.90;;;;;;5032179;28;20980;-82
2023/09/14 07:09:07;;;;;;;0.40;0.40;;;15.70;99.90;;;;;;5031795;28;20446;-85
2023/09/14 07:11:34;;;;;;;0.40;0.40;;;15.90;99.90;;;;;;5022291;28;20935;-79
2023/09/14 07:14:02;;;;;;;0.70;0.70;;;15.90;99.90;;;;;;5014112;28;20488;-86
2023/09/14 07:16:30;;;;;;;0.60;0.60;;;16.00;99.90;;;;;;5020781;28;20475;-85
2023/09/14 07:19:00;;;;;;;0.40;0.40;;;16.00;99.90;;;;;;5017186;28;20449;-83
2023/09/14 07:21:32;;;;;;;1.23;1.23;;;16.20;99.90;;;;;;5031236;28;20461;-86
2023/09/14 07:24:00;;;;;;;1.60;1.17;;;16.20;99.90;;;;;;5030081;28;20557;-83
2023/09/14 07:26:27;;;;;;;0.80;0.80;;;16.30;99.90;;;;;;5021443;28;20482;-82
2023/09/14 07:28:56;;;;;;;0.80;0.80;;;16.40;99.90;;;;;;5018108;28;20413;-83
2023/09/14 07:31:25;;;;;;;2.10;1.67;;;16.50;99.90;;;;;;5030797;28;20466;-86
2023/09/14 07:33:52;;;;;;;1.10;1.10;;;16.50;99.90;;;;;;5025207;28;20458;-82
2023/09/14 07:36:22;;;;;;;0.50;0.50;;;16.60;99.90;;;;;;5021940;28;20629;-82
2023/09/14 07:38:50;;;;;;;1.30;1.20;;;16.80;99.90;;;;;;5018475;28;20479;-82
2023/09/14 07:41:18;;;;;;;0.70;0.70;;;16.80;99.90;;;;;;5028224;28;20505;-79
2023/09/14 07:43:45;;;;;;;3.30;1.50;;;17.00;99.90;;;;;;5044158;28;20470;-85
2023/09/14 07:46:15;;;;;;;1.10;1.10;;;17.10;99.90;;;;;;5073867;22;20784;-81
2023/09/14 07:48:46;;;;;;;1.87;1.77;;;17.10;99.90;;;;;;5035736;28;20523;-82
2023/09/14 07:51:15;;;;;;;1.07;1.07;;;17.40;99.90;;;;;;5029827;28;20585;-86
2023/09/14 07:53:42;;;;;;;0.50;0.50;;;17.20;99.90;;;;;;5032504;28;20480;-79
2023/09/14 07:56:10;;;;;;;3.50;1.03;;;17.30;99.90;;;;;;5028248;28;20414;-83
2023/09/14 07:58:41;;;;;;;5.03;1.47;;;17.30;99.90;;;;;;5022810;28;20465;-81
2023/09/14 08:01:08;;;;;;;1.53;1.43;;;17.40;99.90;;;;;;5027288;28;20431;-83
2023/09/14 08:03:35;;;;;;;1.07;1.07;;;17.30;99.90;;;;;;5027730;28;20413;-79
2023/09/14 08:06:02;;;;;;;0.80;0.80;;;17.50;99.90;;;;;;5032406;28;20541;-78
2023/09/14 08:08:33;;;;;;;1.03;1.00;;;17.60;99.90;;;;;;5018372;28;20416;-81
2023/09/14 08:11:01;;;;;;;0.70;0.70;;;17.90;99.90;;;;;;5021400;28;20621;-84
2023/09/14 08:13:29;;;;;;;1.03;1.00;;;18.00;99.90;;;;;;5035532;28;20451;-87
2023/09/14 08:16:02;;;;;;;0.73;0.73;;;18.30;99.90;;;;;;5013205;28;20475;-78
2023/09/14 08:18:32;;;;;;;0.77;0.77;;;18.40;99.90;;;;;;5029105;28;20540;-88
2023/09/14 08:21:01;;;;;;;1.87;1.77;;;18.50;99.90;;;;;;5021511;28;20458;-85
2023/09/14 08:23:29;;;;;;;0.70;0.70;;;18.60;99.90;;;;;;5031428;28;20475;-83
2023/09/14 08:25:57;;;;;;;1.17;1.07;;;19.00;99.90;;;;;;5014527;28;20506;-84
2023/09/14 08:28:28;;;;;;;0.70;0.70;;;20.30;99.90;;;;;;5012542;28;20511;-80
2023/09/14 08:30:55;;;;;;;1.10;1.10;;;21.60;99.90;;;;;;5015258;28;20769;-81
2023/09/14 08:33:27;;;;;;;1.10;1.10;;;22.10;99.90;;;;;;5026073;28;20454;-81
2023/09/14 08:36:01;;;;;;;1.60;1.50;;;21.60;99.90;;;;;;5027749;28;20409;-81
2023/09/14 08:38:30;;;;;;;1.63;1.57;;;21.30;99.90;;;;;;5023995;28;20508;-79
2023/09/14 08:41:03;;;;;;;1.17;1.17;;;20.70;99.90;;;;;;5019257;28;20448;-80
2023/09/14 08:43:32;;;;;;;1.30;1.20;;;20.20;99.90;;;;;;5026846;28;20534;-87
2023/09/14 08:46:03;;;;;;;2.80;2.60;;;19.60;99.90;;;;;;5017560;28;20478;-80
2023/09/14 08:48:32;;;;;;;2.47;2.27;;;19.30;99.90;;;;;;5021126;28;20727;-82
2023/09/14 08:51:00;;;;;;;1.73;1.63;;;18.90;99.90;;;;;;5022394;28;20454;-82
2023/09/14 08:53:30;;;;;;;1.70;1.60;;;18.60;99.90;;;;;;5025621;28;20472;-79
2023/09/14 08:55:57;;;;;;;2.10;2.00;;;18.70;99.90;;;;;;5016764;28;20486;-80
2023/09/14 08:58:25;;;;;;;1.00;1.00;;;18.60;99.90;;;;;;5028609;28;20482;-79
2023/09/14 09:00:53;;;;;;;0.80;0.80;;;18.60;99.90;;;;;;5015569;28;20435;-78
2023/09/14 09:03:20;;;;;;;0.60;0.60;;;18.60;99.90;;;;;;5019219;28;20799;-79
2023/09/14 09:05:48;;;;;;;0.70;0.70;;;18.90;99.90;;;;;;5026201;28;20708;-82
2023/09/14 09:08:17;;;;;;;2.40;2.30;;;19.30;99.90;;;;;;5027128;28;20446;-84
2023/09/14 09:10:44;;;;;;;0.80;0.80;;;19.20;99.90;;;;;;5024605;28;20474;-82
2023/09/14 09:13:15;;;;;;;0.80;0.80;;;19.40;99.90;;;;;;5020575;28;20439;-83
2023/09/14 09:15:43;;;;;;;1.80;1.70;;;19.20;99.90;;;;;;5032925;28;20442;-85
2023/09/14 09:18:12;;;;;;;1.10;1.10;;;19.20;99.90;;;;;;5028294;28;20478;-82
2023/09/14 09:20:40;;;;;;;1.13;1.13;;;19.00;99.90;;;;;;5022163;28;21036;-81
2023/09/14 09:23:08;;;;;;;1.73;1.63;;;18.70;99.90;;;;;;5005794;28;20810;-83
2023/09/14 09:25:51;;;;;;;1.10;1.10;;;18.60;99.90;;;;;;5006934;28;20452;-83
2023/09/14 09:28:18;;;;;;;1.10;1.10;;;18.60;99.90;;;;;;5022367;28;20751;-87
2023/09/14 09:30:53;;;;;;;2.60;2.50;;;18.40;99.90;;;;;;5017029;28;20446;-84
2023/09/14 09:33:35;;;;;;;0.97;0.97;;;18.50;99.90;;;;;;5012870;28;20420;-90
2023/09/14 09:36:18;;;;;;;0.80;0.80;;;18.50;99.90;;;;;;5018365;28;20456;-81
2023/09/14 09:38:49;;;;;;;0.83;0.83;;;18.70;99.90;;;;;;5008279;28;20471;-84
2023/09/14 09:41:23;;;;;;;0.70;0.70;;;19.00;99.90;;;;;;5025439;28;20442;-87
2023/09/14 09:43:52;;;;;;;1.00;1.00;;;19.00;99.90;;;;;;5015342;28;20513;-79
2023/09/14 09:46:23;;;;;;;1.50;1.33;;;19.10;99.90;;;;;;5022496;28;20527;-81
2023/09/14 09:48:54;;;;;;;2.93;2.73;;;19.30;99.90;;;;;;5022214;28;20406;-86
2023/09/14 09:51:25;;;;;;;1.43;1.33;;;19.50;99.90;;;;;;5014745;28;20501;-82
2023/09/14 09:54:12;;;;;;;0.90;0.90;;;19.70;99.90;;;;;;5021786;28;20487;-84
2023/09/14 09:56:42;;;;;;;1.63;1.53;;;20.10;99.90;;;;;;5029450;28;20459;-85
2023/09/14 09:59:14;;;;;;;1.00;1.00;;;19.90;99.90;;;;;;5013324;28;20486;-84
2023/09/14 10:01:47;;;;;;;0.70;0.70;;;19.90;99.90;;;;;;5028978;28;20450;-88
2023/09/14 10:04:16;;;;;;;0.70;0.70;;;19.60;99.90;;;;;;5024462;28;20427;-83
2023/09/14 10:06:51;;;;;;;1.83;1.63;;;19.30;99.90;;;;;;5016743;28;20505;-85
2023/09/14 10:09:35;;;;;;;0.80;0.80;;;19.30;99.90;;;;;;5035499;28;20456;-85
2023/09/14 10:12:06;;;;;;;0.70;0.70;;;19.20;99.90;;;;;;5022555;28;20498;-86
2023/09/14 10:14:42;;;;;;;1.00;1.00;;;19.30;99.90;;;;;;5020546;28;20491;-83
2023/09/14 10:17:19;;;;;;;0.73;0.73;;;19.40;99.90;;;;;;5023053;28;20805;-82
2023/09/14 10:19:47;;;;;;;1.17;1.10;;;19.30;99.90;;;;;;5033789;28;20476;-85
2023/09/14 10:22:22;;;;;;;1.77;1.67;;;19.80;99.90;;;;;;5032852;28;20500;-85
2023/09/14 10:24:50;;;;;;;1.37;1.37;;;20.00;99.90;;;;;;5019550;28;20411;-87
2023/09/14 10:27:19;;;;;;;1.37;0.77;;;20.10;99.90;;;;;;5027510;28;20450;-84
2023/09/14 10:29:47;;;;;;;0.80;0.80;;;20.40;99.90;;;;;;5036332;28;20492;-86
2023/09/14 10:32:21;;;;;;;0.80;0.80;;;20.90;99.90;;;;;;5039219;28;20658;-85
2023/09/14 10:34:50;;;;;;;1.40;1.33;;;21.30;99.90;;;;;;5017778;28;20738;-84
2023/09/14 10:37:35;;;;;;;0.90;0.90;;;21.70;99.90;;;;;;5028865;28;20482;-85
2023/09/14 10:40:08;;;;;;;1.07;1.07;;;21.30;99.90;;;;;;5013614;28;20742;-83
2023/09/14 10:42:37;;;;;;;0.70;0.70;;;21.50;99.90;;;;;;5030687;28;20658;-86
2023/09/14 10:45:06;;;;;;;1.37;1.37;;;21.60;99.90;;;;;;5035717;28;20459;-83
2023/09/14 10:47:37;;;;;;;0.90;0.90;;;21.70;99.90;;;;;;5032589;28;20469;-84
2023/09/14 10:50:05;;;;;;;1.97;1.80;;;21.40;99.90;;;;;;5021171;28;20832;-82
2023/09/14 10:52:34;;;;;;;0.70;0.70;;;21.20;99.90;;;;;;5036939;28;20577;-85
2023/09/14 10:55:07;;;;;;;0.97;0.97;;;20.60;99.90;;;;;;5034104;28;21052;-84
2023/09/14 10:57:38;;;;;;;0.70;0.70;;;20.30;99.90;;;;;;5032046;28;20604;-87
2023/09/14 11:00:06;;;;;;;0.90;0.90;;;19.80;99.90;;;;;;5036043;28;20557;-80
2023/09/14 11:02:51;;;;;;;0.80;0.80;;;19.80;99.90;;;;;;5042810;28;20446;-86
2023/09/14 11:05:27;;;;;;;1.50;1.40;;;19.40;99.90;;;;;;5024149;28;20444;-81
2023/09/14 11:08:02;;;;;;;0.70;0.70;;;19.20;99.90;;;;;;5023231;28;20427;-83
2023/09/14 11:10:42;;;;;;;1.37;1.27;;;18.90;99.90;;;;;;5031926;28;20417;-83
2023/09/14 11:13:19;;;;;;;1.90;1.80;;;19.10;99.90;;;;;;5033644;28;20415;-85
2023/09/14 11:16:04;;;;;;;0.60;0.60;;;19.30;99.90;;;;;;5029976;28;20469;-89
2023/09/14 11:18:55;;;;;;;1.10;1.10;;;19.60;99.90;;;;;;5043195;28;20465;-87
2023/09/14 11:21:32;;;;;;;0.80;0.80;;;20.00;99.90;;;;;;5022332;28;20411;-88
2023/09/14 11:24:07;;;;;;;1.27;1.27;;;20.10;99.90;;;;;;5021722;28;20435;-87
2023/09/14 11:26:47;;;;;;;1.47;1.37;;;20.00;99.90;;;;;;5028100;28;20477;-84
2023/09/14 11:29:33;;;;;;;3.20;3.00;;;20.10;99.90;;;;;;5037640;28;20439;-82
2023/09/14 11:32:06;;;;;;;1.30;1.30;;;20.30;99.90;;;;;;5027652;28;20430;-88
2023/09/14 11:34:38;;;;;;;0.80;0.80;;;20.00;99.90;;;;;;5018376;28;20410;-83
2023/09/14 11:37:15;;;;;;;0.77;0.77;;;20.00;99.90;;;;;;5042218;28;20439;-79
2023/09/14 11:39:54;;;;;;;0.93;0.93;;;20.00;99.90;;;;;;5033128;28;20446;-85
2023/09/14 11:43:07;;;;;;;0.70;0.70;;;20.10;99.90;;;;;;5034374;28;20471;-78
2023/09/14 11:45:43;;;;;;;0.90;0.90;;;20.30;99.90;;;;;;5030945;28;20802;-86
2023/09/14 11:48:18;;;;;;;1.90;1.80;;;20.50;99.90;;;;;;5039235;28;20441;-81
2023/09/14 11:50:49;;;;;;;0.77;0.77;;;20.60;99.90;;;;;;5027779;28;20408;-80
2023/09/14 11:53:19;;;;;;;2.50;2.30;;;20.80;99.90;;;;;;5035970;28;20444;-86
2023/09/14 11:55:48;;;;;;;1.63;1.53;;;21.00;99.90;;;;;;5019937;28;20565;-89
2023/09/14 11:58:16;;;;;;;1.80;1.53;;;21.20;99.90;;;;;;5032633;28;20508;-83
2023/09/14 12:00:47;;;;;;;1.53;1.43;;;21.00;99.90;;;;;;5027779;28;20423;-81
2023/09/14 12:03:14;;;;;;;0.90;0.90;;;20.90;99.90;;;;;;5041349;28;20431;-87
2023/09/14 12:05:41;;;;;;;0.80;0.80;;;21.00;99.90;;;;;;5039733;28;20746;-84
2023/09/14 12:08:14;;;;;;;0.90;0.90;;;21.10;99.90;;;;;;5035393;28;20584;-89
2023/09/14 12:10:45;;;;;;;1.60;1.50;;;21.20;99.90;;;;;;5023934;28;20439;-88
2023/09/14 12:13:15;;;;;;;0.90;0.90;;;21.10;99.90;;;;;;5032683;28;20483;-89
2023/09/14 12:15:46;;;;;;;0.70;0.70;;;20.90;99.90;;;;;;5015517;28;20781;-88
2023/09/14 12:18:17;;;;;;;1.00;1.00;;;21.10;99.90;;;;;;5034146;28;20632;-85
2023/09/14 12:20:50;;;;;;;0.80;0.80;;;21.00;99.90;;;;;;5030125;28;20469;-86
2023/09/14 12:23:17;;;;;;;1.07;1.00;;;20.70;99.90;;;;;;5024825;28;20443;-88
2023/09/14 12:25:46;;;;;;;1.00;1.00;;;21.00;99.90;;;;;;5032915;28;20505;-88
2023/09/14 12:28:18;;;;;;;0.80;0.80;;;21.20;99.90;;;;;;5035194;28;20749;-81
2023/09/14 12:30:46;;;;;;;0.90;0.90;;;21.40;99.90;;;;;;5038894;28;20465;-87
2023/09/14 12:33:19;;;;;;;2.37;2.17;;;21.10;99.90;;;;;;5028627;28;20426;-79
2023/09/14 12:35:47;;;;;;;0.70;0.70;;;21.30;99.90;;;;;;5034002;28;20448;-86
2023/09/14 12:38:15;;;;;;;4.70;1.90;;;21.20;99.90;;;;;;5041425;28;20485;-80
2023/09/14 12:40:42;;;;;;;0.70;0.70;;;21.00;99.90;;;;;;5034410;28;20538;-82
2023/09/14 12:43:11;;;;;;;0.73;0.73;;;21.10;99.90;;;;;;5019448;28;20470;-83
2023/09/14 12:45:39;;;;;;;0.90;0.90;;;21.40;99.90;;;;;;5026333;28;20420;-89
2023/09/14 12:48:08;;;;;;;1.27;1.23;;;21.30;99.90;;;;;;5040804;28;20566;-82
2023/09/14 12:50:36;;;;;;;1.67;1.57;;;21.40;99.90;;;;;;5017326;28;20455;-81
2023/09/14 12:53:10;;;;;;;3.63;1.93;;;21.20;99.90;;;;;;5026273;28;20525;-84
2023/09/14 12:55:43;;;;;;;0.80;0.80;;;21.20;99.90;;;;;;5032410;28;20468;-83
2023/09/14 12:58:11;;;;;;;1.33;1.30;;;21.00;99.90;;;;;;5020033;28;20480;-85
2023/09/14 13:00:39;;;;;;;0.90;0.90;;;21.10;99.90;;;;;;5023103;28;20460;-84
2023/09/14 13:03:09;;;;;;;0.80;0.80;;;21.20;99.90;;;;;;5028400;28;20433;-86